sensor_id;sensor_type;location;lat;lon;timestamp;P1;durP1;ratioP1;P2;durP2;ratioP2
35757;SDS011;21879;50.110;18.900;2023-04-08T00:04:30;28.90;;;17.70;;
35757;SDS011;21879;50.110;18.900;2023-04-08T00:14:56;27.30;;;16.30;;
35757;SDS011;21879;50.110;18.900;2023-04-08T00:25:22;20.90;;;14.30;;
35757;SDS011;21879;50.110;18.900;2023-04-08T00:35:48;20.80;;;11.70;;
35757;SDS011;21879;50.110;18.900;2023-04-08T00:46:14;21.50;;;13.90;;
35757;SDS011;21879;50.110;18.900;2023-04-08T00:56:40;17.40;;;10.30;;
35757;SDS011;21879;50.110;18.900;2023-04-08T01:07:11;16.30;;;9.90;;
35757;SDS011;21879;50.110;18.900;2023-04-08T01:17:41;21.90;;;14.40;;
35757;SDS011;21879;50.110;18.900;2023-04-08T01:28:10;20.10;;;12.50;;
35757;SDS011;21879;50.110;18.900;2023-04-08T01:38:39;17.60;;;12.00;;
35757;SDS011;21879;50.110;18.900;2023-04-08T01:49:06;16.00;;;11.20;;
35757;SDS011;21879;50.110;18.900;2023-04-08T01:59:33;17.80;;;11.10;;
35757;SDS011;21879;50.110;18.900;2023-04-08T02:10:01;17.40;;;11.00;;
35757;SDS011;21879;50.110;18.900;2023-04-08T02:20:29;15.00;;;10.90;;
35757;SDS011;21879;50.110;18.900;2023-04-08T02:31:00;20.90;;;13.00;;
35757;SDS011;21879;50.110;18.900;2023-04-08T02:41:29;28.50;;;16.30;;
35757;SDS011;21879;50.110;18.900;2023-04-08T02:51:55;21.80;;;14.80;;
35757;SDS011;21879;50.110;18.900;2023-04-08T03:02:21;24.80;;;14.90;;
35757;SDS011;21879;50.110;18.900;2023-04-08T03:12:47;22.10;;;14.00;;
35757;SDS011;21879;50.110;18.900;2023-04-08T03:23:12;24.90;;;14.00;;
35757;SDS011;21879;50.110;18.900;2023-04-08T03:33:38;25.50;;;16.70;;
35757;SDS011;21879;50.110;18.900;2023-04-08T03:44:04;23.60;;;15.40;;
35757;SDS011;21879;50.110;18.900;2023-04-08T03:54:30;22.60;;;15.00;;
35757;SDS011;21879;50.110;18.900;2023-04-08T04:05:05;21.30;;;14.20;;
35757;SDS011;21879;50.110;18.900;2023-04-08T04:15:31;24.50;;;15.80;;
35757;SDS011;21879;50.110;18.900;2023-04-08T04:26:01;18.90;;;13.10;;
35757;SDS011;21879;50.110;18.900;2023-04-08T04:36:30;19.50;;;13.60;;
35757;SDS011;21879;50.110;18.900;2023-04-08T04:46:57;17.60;;;10.80;;
35757;SDS011;21879;50.110;18.900;2023-04-08T04:57:23;21.20;;;12.00;;
35757;SDS011;21879;50.110;18.900;2023-04-08T05:07:49;20.70;;;13.10;;
35757;SDS011;21879;50.110;18.900;2023-04-08T05:18:15;18.60;;;10.90;;
35757;SDS011;21879;50.110;18.900;2023-04-08T05:28:41;17.90;;;11.60;;
35757;SDS011;21879;50.110;18.900;2023-04-08T05:39:07;21.00;;;12.00;;
35757;SDS011;21879;50.110;18.900;2023-04-08T05:49:33;18.70;;;11.70;;
35757;SDS011;21879;50.110;18.900;2023-04-08T05:59:59;21.00;;;13.10;;
35757;SDS011;21879;50.110;18.900;2023-04-08T06:10:25;22.20;;;13.10;;
35757;SDS011;21879;50.110;18.900;2023-04-08T06:20:51;20.00;;;11.60;;
35757;SDS011;21879;50.110;18.900;2023-04-08T06:31:17;19.30;;;13.00;;
35757;SDS011;21879;50.110;18.900;2023-04-08T06:41:43;18.20;;;11.50;;
35757;SDS011;21879;50.110;18.900;2023-04-08T06:52:10;19.70;;;10.90;;
35757;SDS011;21879;50.110;18.900;2023-04-08T07:02:37;18.80;;;11.50;;
35757;SDS011;21879;50.110;18.900;2023-04-08T07:13:03;19.80;;;10.30;;
35757;SDS011;21879;50.110;18.900;2023-04-08T07:23:29;16.90;;;11.80;;
35757;SDS011;21879;50.110;18.900;2023-04-08T07:33:55;18.70;;;12.40;;
35757;SDS011;21879;50.110;18.900;2023-04-08T07:44:20;19.90;;;11.20;;
35757;SDS011;21879;50.110;18.900;2023-04-08T07:54:46;14.60;;;10.10;;
35757;SDS011;21879;50.110;18.900;2023-04-08T08:05:12;18.80;;;11.50;;
35757;SDS011;21879;50.110;18.900;2023-04-08T08:15:38;15.20;;;8.90;;
35757;SDS011;21879;50.110;18.900;2023-04-08T08:26:04;13.70;;;9.50;;
35757;SDS011;21879;50.110;18.900;2023-04-08T08:46:57;13.90;;;8.20;;
35757;SDS011;21879;50.110;18.900;2023-04-08T08:57:23;14.00;;;8.60;;
35757;SDS011;21879;50.110;18.900;2023-04-08T09:07:49;105.30;;;56.70;;
35757;SDS011;21879;50.110;18.900;2023-04-08T09:18:21;29.30;;;20.60;;
35757;SDS011;21879;50.110;18.900;2023-04-08T09:28:58;10.30;;;6.90;;
35757;SDS011;21879;50.110;18.900;2023-04-08T09:39:40;9.40;;;6.70;;
35757;SDS011;21879;50.110;18.900;2023-04-08T09:50:06;11.60;;;7.60;;
35757;SDS011;21879;50.110;18.900;2023-04-08T10:00:33;11.10;;;7.40;;
35757;SDS011;21879;50.110;18.900;2023-04-08T10:11:03;11.90;;;7.90;;
35757;SDS011;21879;50.110;18.900;2023-04-08T10:21:36;10.50;;;6.30;;
35757;SDS011;21879;50.110;18.900;2023-04-08T10:32:05;11.00;;;7.10;;
35757;SDS011;21879;50.110;18.900;2023-04-08T10:42:30;11.20;;;8.40;;
35757;SDS011;21879;50.110;18.900;2023-04-08T10:52:56;8.70;;;5.60;;
35757;SDS011;21879;50.110;18.900;2023-04-08T11:03:23;8.70;;;5.50;;
35757;SDS011;21879;50.110;18.900;2023-04-08T11:13:52;9.20;;;5.40;;
35757;SDS011;21879;50.110;18.900;2023-04-08T11:24:20;11.70;;;6.00;;
35757;SDS011;21879;50.110;18.900;2023-04-08T11:34:46;9.70;;;7.10;;
35757;SDS011;21879;50.110;18.900;2023-04-08T11:45:12;10.60;;;7.30;;
35757;SDS011;21879;50.110;18.900;2023-04-08T11:55:39;12.20;;;6.80;;
35757;SDS011;21879;50.110;18.900;2023-04-08T12:06:04;18.90;;;12.60;;
35757;SDS011;21879;50.110;18.900;2023-04-08T12:16:31;10.30;;;7.20;;
35757;SDS011;21879;50.110;18.900;2023-04-08T12:26:58;16.30;;;10.40;;
35757;SDS011;21879;50.110;18.900;2023-04-08T12:37:26;10.90;;;8.10;;
35757;SDS011;21879;50.110;18.900;2023-04-08T12:47:53;13.40;;;8.70;;
35757;SDS011;21879;50.110;18.900;2023-04-08T12:58:19;10.20;;;7.40;;
35757;SDS011;21879;50.110;18.900;2023-04-08T13:08:45;12.60;;;8.40;;
35757;SDS011;21879;50.110;18.900;2023-04-08T13:19:12;13.40;;;8.90;;
35757;SDS011;21879;50.110;18.900;2023-04-08T13:29:38;11.90;;;8.10;;
35757;SDS011;21879;50.110;18.900;2023-04-08T13:40:05;13.90;;;9.30;;
35757;SDS011;21879;50.110;18.900;2023-04-08T13:50:31;15.30;;;10.30;;
35757;SDS011;21879;50.110;18.900;2023-04-08T14:00:57;13.60;;;8.90;;
35757;SDS011;21879;50.110;18.900;2023-04-08T14:11:23;14.40;;;8.90;;
35757;SDS011;21879;50.110;18.900;2023-04-08T14:21:49;15.70;;;9.50;;
35757;SDS011;21879;50.110;18.900;2023-04-08T14:32:15;15.50;;;9.30;;
35757;SDS011;21879;50.110;18.900;2023-04-08T14:42:41;14.90;;;8.00;;
35757;SDS011;21879;50.110;18.900;2023-04-08T14:53:07;13.20;;;8.00;;
35757;SDS011;21879;50.110;18.900;2023-04-08T15:03:33;13.40;;;9.20;;
35757;SDS011;21879;50.110;18.900;2023-04-08T15:13:59;16.80;;;9.30;;
35757;SDS011;21879;50.110;18.900;2023-04-08T15:24:26;20.00;;;10.70;;
35757;SDS011;21879;50.110;18.900;2023-04-08T15:34:52;15.90;;;8.50;;
35757;SDS011;21879;50.110;18.900;2023-04-08T15:45:18;15.30;;;9.00;;
35757;SDS011;21879;50.110;18.900;2023-04-08T15:55:44;15.60;;;10.80;;
35757;SDS011;21879;50.110;18.900;2023-04-08T16:06:11;15.20;;;7.60;;
35757;SDS011;21879;50.110;18.900;2023-04-08T16:16:37;14.80;;;9.70;;
35757;SDS011;21879;50.110;18.900;2023-04-08T16:27:04;14.00;;;9.70;;
35757;SDS011;21879;50.110;18.900;2023-04-08T16:37:30;13.30;;;9.80;;
35757;SDS011;21879;50.110;18.900;2023-04-08T16:47:57;20.60;;;11.50;;
35757;SDS011;21879;50.110;18.900;2023-04-08T16:58:23;17.00;;;10.70;;
35757;SDS011;21879;50.110;18.900;2023-04-08T17:08:49;17.60;;;10.90;;
35757;SDS011;21879;50.110;18.900;2023-04-08T17:19:15;17.30;;;11.40;;
35757;SDS011;21879;50.110;18.900;2023-04-08T17:29:41;19.30;;;11.40;;
35757;SDS011;21879;50.110;18.900;2023-04-08T17:40:08;17.10;;;11.80;;
35757;SDS011;21879;50.110;18.900;2023-04-08T17:50:34;16.90;;;11.30;;
35757;SDS011;21879;50.110;18.900;2023-04-08T18:01:00;20.20;;;12.60;;
35757;SDS011;21879;50.110;18.900;2023-04-08T18:11:26;18.50;;;12.30;;
35757;SDS011;21879;50.110;18.900;2023-04-08T18:21:53;20.70;;;16.40;;
35757;SDS011;21879;50.110;18.900;2023-04-08T18:32:18;20.60;;;14.60;;
35757;SDS011;21879;50.110;18.900;2023-04-08T18:42:44;23.10;;;15.30;;
35757;SDS011;21879;50.110;18.900;2023-04-08T18:53:10;18.60;;;13.40;;
35757;SDS011;21879;50.110;18.900;2023-04-08T19:03:36;24.00;;;14.80;;
35757;SDS011;21879;50.110;18.900;2023-04-08T19:14:02;20.20;;;13.70;;
35757;SDS011;21879;50.110;18.900;2023-04-08T19:24:29;27.00;;;16.70;;
35757;SDS011;21879;50.110;18.900;2023-04-08T19:34:56;23.10;;;15.80;;
35757;SDS011;21879;50.110;18.900;2023-04-08T19:45:23;21.30;;;14.40;;
35757;SDS011;21879;50.110;18.900;2023-04-08T19:55:51;21.40;;;14.70;;
35757;SDS011;21879;50.110;18.900;2023-04-08T20:06:23;51.50;;;31.50;;
35757;SDS011;21879;50.110;18.900;2023-04-08T20:16:50;64.20;;;38.70;;
35757;SDS011;21879;50.110;18.900;2023-04-08T20:27:16;36.30;;;21.70;;
35757;SDS011;21879;50.110;18.900;2023-04-08T20:37:42;44.50;;;28.40;;
35757;SDS011;21879;50.110;18.900;2023-04-08T20:48:08;63.20;;;33.00;;
35757;SDS011;21879;50.110;18.900;2023-04-08T20:58:35;55.80;;;31.70;;
35757;SDS011;21879;50.110;18.900;2023-04-08T21:09:01;61.90;;;38.00;;
35757;SDS011;21879;50.110;18.900;2023-04-08T21:19:27;50.70;;;33.80;;
35757;SDS011;21879;50.110;18.900;2023-04-08T21:29:53;50.30;;;31.00;;
35757;SDS011;21879;50.110;18.900;2023-04-08T21:40:19;38.00;;;24.80;;
35757;SDS011;21879;50.110;18.900;2023-04-08T21:50:45;47.30;;;30.00;;
35757;SDS011;21879;50.110;18.900;2023-04-08T22:01:11;61.80;;;37.70;;
35757;SDS011;21879;50.110;18.900;2023-04-08T22:11:38;85.30;;;52.20;;
35757;SDS011;21879;50.110;18.900;2023-04-08T22:22:04;63.70;;;40.10;;
35757;SDS011;21879;50.110;18.900;2023-04-08T22:32:30;60.70;;;36.50;;
35757;SDS011;21879;50.110;18.900;2023-04-08T22:42:56;58.00;;;33.50;;
35757;SDS011;21879;50.110;18.900;2023-04-08T22:53:22;52.30;;;34.40;;
35757;SDS011;21879;50.110;18.900;2023-04-08T23:03:49;60.40;;;39.40;;
35757;SDS011;21879;50.110;18.900;2023-04-08T23:14:15;57.80;;;35.30;;
35757;SDS011;21879;50.110;18.900;2023-04-08T23:24:41;55.40;;;35.50;;
35757;SDS011;21879;50.110;18.900;2023-04-08T23:35:07;50.40;;;31.50;;
35757;SDS011;21879;50.110;18.900;2023-04-08T23:45:32;45.70;;;30.20;;
35757;SDS011;21879;50.110;18.900;2023-04-08T23:56:03;46.10;;;30.90;;
